createdAt,value
2022-11-12T00:00:24.120Z,60.02
2022-11-12T00:03:09.847Z,59.65
2022-11-12T00:05:55.585Z,59.71
2022-11-12T00:08:40.869Z,59.55
2022-11-12T00:11:26.346Z,59.62
2022-11-12T00:14:11.683Z,59.92
2022-11-12T00:16:57.200Z,59.96
2022-11-12T00:19:42.604Z,59.83
2022-11-12T00:22:28.000Z,59.95
2022-11-12T00:25:13.686Z,59.73
2022-11-12T00:28:08.914Z,59.82
2022-11-12T00:30:54.349Z,59.78
2022-11-12T00:33:41.863Z,59.58
2022-11-12T00:36:27.436Z,59.48
2022-11-12T00:39:13.371Z,59.28
2022-11-12T00:41:58.935Z,59.39
2022-11-12T00:44:44.532Z,59.36
2022-11-12T00:47:29.793Z,59.33
2022-11-12T00:50:16.357Z,59.39
2022-11-12T00:53:02.030Z,59.31
2022-11-12T00:55:47.524Z,59.43
2022-11-12T00:58:35.949Z,59.45
2022-11-12T01:01:22.649Z,59.38
2022-11-12T01:04:09.153Z,59.65
2022-11-12T01:06:55.005Z,59.38
2022-11-12T01:09:40.895Z,59.47
2022-11-12T01:12:26.456Z,59.45
2022-11-12T01:15:12.017Z,59.41
2022-11-12T01:17:57.825Z,59.35
2022-11-12T01:20:43.480Z,59.18
2022-11-12T01:23:33.297Z,59.36
2022-11-12T01:26:21.818Z,58.99
2022-11-12T01:29:07.591Z,59.10
2022-11-12T01:31:53.107Z,59.09
2022-11-12T01:34:38.487Z,59.20
2022-11-12T01:37:23.818Z,59.36
2022-11-12T01:40:10.240Z,59.00
2022-11-12T01:42:55.971Z,59.17
2022-11-12T01:45:46.939Z,59.11
2022-11-12T01:48:41.828Z,59.11
2022-11-12T01:51:37.866Z,59.11
2022-11-12T01:54:24.207Z,59.06
2022-11-12T01:57:12.831Z,58.93
2022-11-12T02:00:10.604Z,58.72
2022-11-12T02:03:00.238Z,58.80
2022-11-12T02:05:51.835Z,58.79
2022-11-12T02:08:38.901Z,59.00
2022-11-12T02:11:24.501Z,58.91
2022-11-12T02:14:10.068Z,59.01
2022-11-12T02:16:55.803Z,58.76
2022-11-12T02:19:41.155Z,58.42
2022-11-12T02:22:27.081Z,58.32
2022-11-12T02:25:18.005Z,58.61
2022-11-12T02:28:07.467Z,58.75
2022-11-12T02:30:53.231Z,59.04
2022-11-12T02:33:38.543Z,59.13
2022-11-12T02:36:24.589Z,58.88
2022-11-12T02:39:10.596Z,58.77
2022-11-12T02:41:56.037Z,59.04
2022-11-12T02:44:41.661Z,58.68
2022-11-12T02:47:27.492Z,58.73
2022-11-12T02:50:13.414Z,58.94
2022-11-12T02:52:59.006Z,59.36
2022-11-12T02:55:44.586Z,58.79
2022-11-12T02:58:30.760Z,58.88
2022-11-12T03:01:16.326Z,58.76
2022-11-12T03:04:02.318Z,58.91
2022-11-12T03:06:47.738Z,58.97
2022-11-12T03:09:33.686Z,58.73
2022-11-12T03:12:19.125Z,58.71
2022-11-12T03:15:05.575Z,58.62
2022-11-12T03:17:51.162Z,58.38
2022-11-12T03:20:36.517Z,58.39
2022-11-12T03:23:22.132Z,58.45
2022-11-12T03:26:07.808Z,58.55
2022-11-12T03:28:54.051Z,59.00
2022-11-12T03:31:39.896Z,58.88
2022-11-12T03:34:25.252Z,58.21
2022-11-12T03:37:10.764Z,57.66
2022-11-12T03:39:56.114Z,58.37
2022-11-12T03:42:50.806Z,58.47
2022-11-12T03:45:36.646Z,58.95
2022-11-12T03:48:23.291Z,59.45
2022-11-12T03:51:08.854Z,59.69
2022-11-12T03:53:54.497Z,59.65
2022-11-12T03:56:40.047Z,59.74
2022-11-12T03:59:25.528Z,59.89
2022-11-12T04:02:14.523Z,59.60
2022-11-12T04:05:19.186Z,59.59
2022-11-12T04:08:36.924Z,59.21
2022-11-12T04:11:23.193Z,59.12
2022-11-12T04:14:08.825Z,59.41
2022-11-12T04:17:13.125Z,59.44
2022-11-12T04:20:17.485Z,59.41
2022-11-12T04:23:02.855Z,59.28
2022-11-12T04:26:07.144Z,59.45
2022-11-12T04:29:10.985Z,59.31
2022-11-12T04:31:56.652Z,59.08
2022-11-12T04:34:42.324Z,58.78
2022-11-12T04:37:44.397Z,58.93
2022-11-12T04:40:49.762Z,58.82
2022-11-12T04:43:53.510Z,58.65
2022-11-12T04:46:38.970Z,59.04
2022-11-12T04:49:24.320Z,58.93
2022-11-12T04:52:09.946Z,59.18
2022-11-12T04:54:55.948Z,59.11
2022-11-12T04:57:41.820Z,58.62
2022-11-12T05:00:27.648Z,58.69
2022-11-12T05:03:13.061Z,58.66
2022-11-12T05:06:04.330Z,58.86
2022-11-12T05:08:49.807Z,58.89
2022-11-12T05:11:35.154Z,59.27
2022-11-12T05:14:20.543Z,59.51
2022-11-12T05:17:06.326Z,59.61
2022-11-12T05:19:52.008Z,59.33
2022-11-12T05:22:45.533Z,59.40
2022-11-12T05:25:36.618Z,59.69
2022-11-12T05:28:21.999Z,59.79
2022-11-12T05:31:07.321Z,59.78
2022-11-12T05:33:52.871Z,59.65
2022-11-12T05:36:38.912Z,59.57
2022-11-12T05:39:24.704Z,59.76
2022-11-12T05:42:13.402Z,59.62
2022-11-12T05:44:59.765Z,59.38
2022-11-12T05:47:45.128Z,59.15
2022-11-12T05:50:39.864Z,59.07
2022-11-12T05:53:36.746Z,59.82
2022-11-12T05:56:22.746Z,59.81
2022-11-12T05:59:10.699Z,60.14
2022-11-12T06:01:56.270Z,60.18
2022-11-12T06:04:41.697Z,60.28
2022-11-12T06:07:27.226Z,60.26
2022-11-12T06:10:19.105Z,60.47
2022-11-12T06:13:06.909Z,60.61
2022-11-12T06:15:54.200Z,60.52
2022-11-12T06:18:39.853Z,60.59
2022-11-12T06:21:27.889Z,60.48
2022-11-12T06:24:14.156Z,60.58
2022-11-12T06:26:59.571Z,60.73
2022-11-12T06:29:45.111Z,60.70
2022-11-12T06:32:30.703Z,60.58
2022-11-12T06:35:18.316Z,60.70
2022-11-12T06:38:03.883Z,60.31
2022-11-12T06:40:49.327Z,60.29
2022-11-12T06:43:35.870Z,60.32
2022-11-12T06:46:21.331Z,60.34
2022-11-12T06:49:09.780Z,60.23
2022-11-12T06:51:55.557Z,60.19
2022-11-12T06:54:40.962Z,60.14
2022-11-12T06:57:26.684Z,60.11
2022-11-12T07:00:13.141Z,59.89
2022-11-12T07:02:58.585Z,60.00
2022-11-12T07:05:44.634Z,59.78
2022-11-12T07:08:30.512Z,59.83
2022-11-12T07:11:20.668Z,59.65
2022-11-12T07:14:09.779Z,59.42
2022-11-12T07:16:55.373Z,59.54
2022-11-12T07:19:41.329Z,59.58
2022-11-12T07:22:26.862Z,59.39
2022-11-12T07:25:12.526Z,59.38
2022-11-12T07:27:58.133Z,59.15
2022-11-12T07:30:43.663Z,58.95
2022-11-12T07:33:30.536Z,59.29
2022-11-12T07:36:24.665Z,58.95
2022-11-12T07:39:19.102Z,58.43
2022-11-12T07:42:04.975Z,58.17
2022-11-12T07:44:50.864Z,57.63
2022-11-12T07:47:38.219Z,57.90
2022-11-12T07:50:23.780Z,57.45
2022-11-12T07:53:09.203Z,57.33
2022-11-12T07:56:00.830Z,56.61
2022-11-12T07:58:47.135Z,56.52
2022-11-12T08:01:34.609Z,56.33
2022-11-12T08:04:20.333Z,56.74
2022-11-12T08:07:06.544Z,56.25
2022-11-12T08:09:53.205Z,56.18
2022-11-12T08:12:39.009Z,55.61
2022-11-12T08:15:25.017Z,55.40
2022-11-12T08:18:10.572Z,55.38
2022-11-12T08:21:05.566Z,55.45
2022-11-12T08:23:52.163Z,55.15
2022-11-12T08:26:38.005Z,54.30
2022-11-12T08:29:23.429Z,53.93
2022-11-12T08:32:09.046Z,53.63
2022-11-12T08:34:54.680Z,53.41
2022-11-12T08:37:40.369Z,53.08
2022-11-12T08:40:28.201Z,52.68
2022-11-12T08:43:13.977Z,52.15
2022-11-12T08:46:01.245Z,52.22
2022-11-12T08:48:46.792Z,51.06
2022-11-12T08:51:32.235Z,50.27
2022-11-12T08:54:17.708Z,50.32
2022-11-12T08:57:03.148Z,50.38
2022-11-12T08:59:48.768Z,49.79
2022-11-12T09:02:34.155Z,50.07
2022-11-12T09:05:20.420Z,49.61
2022-11-12T09:08:10.057Z,49.27
2022-11-12T09:10:58.240Z,48.76
2022-11-12T09:13:43.947Z,48.60
2022-11-12T09:16:30.040Z,48.35
2022-11-12T09:19:15.619Z,48.35
2022-11-12T09:22:01.155Z,48.04
2022-11-12T09:24:46.883Z,48.33
2022-11-12T09:27:32.465Z,47.72
2022-11-12T09:30:18.243Z,46.92
2022-11-12T09:33:04.600Z,46.64
2022-11-12T09:35:51.863Z,46.23
2022-11-12T09:38:37.664Z,46.68
2022-11-12T09:41:30.263Z,46.12
2022-11-12T09:44:24.194Z,45.94
2022-11-12T09:47:25.842Z,45.37
2022-11-12T09:50:30.887Z,45.27
2022-11-12T09:53:44.453Z,44.84
2022-11-12T09:56:30.481Z,44.97
2022-11-12T09:59:16.594Z,43.99
2022-11-12T10:02:40.653Z,43.75
2022-11-12T10:05:32.450Z,43.78
2022-11-12T10:08:33.627Z,43.54
2022-11-12T10:12:02.892Z,43.37
2022-11-12T10:15:31.530Z,42.96
2022-11-12T10:18:48.450Z,43.48
2022-11-12T10:21:41.680Z,43.01
2022-11-12T10:24:35.049Z,42.97
2022-11-12T10:27:30.072Z,43.30
2022-11-12T10:30:21.091Z,43.13
2022-11-12T10:33:06.619Z,42.88
2022-11-12T10:35:53.408Z,42.94
2022-11-12T10:38:42.368Z,42.86
2022-11-12T10:41:31.394Z,42.45
2022-11-12T10:44:27.731Z,42.58
2022-11-12T10:47:23.685Z,42.22
2022-11-12T10:50:09.164Z,41.65
2022-11-12T10:53:03.400Z,39.96
2022-11-12T10:56:00.834Z,37.95
2022-11-12T10:58:46.450Z,36.18
2022-11-12T11:01:35.848Z,35.10
2022-11-12T11:04:34.594Z,33.83
2022-11-12T11:07:25.572Z,32.75
2022-11-12T11:10:32.523Z,31.30
2022-11-12T11:13:28.287Z,29.91
2022-11-12T11:16:18.499Z,29.19
2022-11-12T11:19:06.298Z,27.93
2022-11-12T11:21:52.336Z,26.87
2022-11-12T11:24:54.868Z,26.19
2022-11-12T11:28:12.441Z,25.32
2022-11-12T11:31:23.700Z,24.77
2022-11-12T11:34:21.032Z,24.00
2022-11-12T11:37:27.652Z,22.87
2022-11-12T11:40:36.317Z,22.33
2022-11-12T11:44:14.092Z,21.64
2022-11-12T11:47:14.308Z,20.69
2022-11-12T11:50:19.926Z,20.13
2022-11-12T11:53:47.721Z,19.25
2022-11-12T11:56:45.395Z,19.15
2022-11-12T12:00:04.799Z,19.22
2022-11-12T12:03:22.711Z,18.91
2022-11-12T12:06:25.178Z,19.44
2022-11-12T12:09:20.727Z,18.67
2022-11-12T12:13:19.038Z,18.79
2022-11-12T12:16:29.751Z,18.92
2022-11-12T12:19:51.482Z,18.08
2022-11-12T12:23:14.041Z,18.54
2022-11-12T12:26:03.575Z,18.65
2022-11-12T12:29:37.189Z,18.20
2022-11-12T12:32:29.349Z,18.36
2022-11-12T12:35:20.545Z,18.55
2022-11-12T12:38:40.682Z,18.36
2022-11-12T12:42:01.780Z,18.34
2022-11-12T12:45:04.869Z,18.56
2022-11-12T12:47:51.736Z,18.49
2022-11-12T12:50:40.141Z,18.69
2022-11-12T12:53:28.770Z,19.02
2022-11-12T12:56:14.649Z,19.27
2022-11-12T12:59:03.999Z,19.74
2022-11-12T13:02:01.898Z,19.60
2022-11-12T13:04:57.637Z,19.93
2022-11-12T13:07:46.770Z,20.07
2022-11-12T13:10:51.413Z,20.49
2022-11-12T13:13:38.756Z,20.74
2022-11-12T13:16:52.718Z,20.80
2022-11-12T13:19:53.430Z,20.76
2022-11-12T13:22:39.133Z,20.85
2022-11-12T13:25:29.481Z,21.43
2022-11-12T13:28:15.602Z,21.34
2022-11-12T13:31:03.602Z,21.14
2022-11-12T13:33:49.571Z,21.12
2022-11-12T13:36:35.593Z,21.07
2022-11-12T13:39:24.177Z,20.94
2022-11-12T13:42:34.403Z,21.26
2022-11-12T13:45:24.601Z,21.28
2022-11-12T13:48:18.496Z,21.17
2022-11-12T13:51:32.122Z,21.31
2022-11-12T13:54:34.595Z,21.34
2022-11-12T13:57:25.665Z,21.97
2022-11-12T14:00:16.913Z,22.01
2022-11-12T14:03:06.672Z,21.92
2022-11-12T14:05:53.263Z,22.50
2022-11-12T14:08:52.542Z,24.42
2022-11-12T14:11:59.805Z,25.69
2022-11-12T14:15:16.952Z,27.00
2022-11-12T14:18:16.604Z,28.61
2022-11-12T14:21:17.271Z,30.01
2022-11-12T14:24:04.151Z,31.46
2022-11-12T14:26:49.758Z,31.39
2022-11-12T14:29:37.873Z,32.15
2022-11-12T14:32:26.944Z,33.27
2022-11-12T14:35:36.271Z,34.30
2022-11-12T14:38:28.566Z,34.50
2022-11-12T14:41:32.936Z,34.82
2022-11-12T14:44:23.939Z,35.43
2022-11-12T14:47:10.291Z,35.33
2022-11-12T14:49:56.158Z,36.69
2022-11-12T14:52:47.565Z,36.82
2022-11-12T14:55:37.468Z,37.31
2022-11-12T14:58:24.624Z,38.61
2022-11-12T15:02:57.312Z,39.16
2022-11-12T15:04:50.824Z,39.98
2022-11-12T15:07:57.009Z,40.48
2022-11-12T15:10:44.999Z,41.32
2022-11-12T15:13:39.677Z,42.65
2022-11-12T15:16:34.828Z,42.48
2022-11-12T15:19:25.873Z,43.43
2022-11-12T15:22:21.532Z,44.24
2022-11-12T15:25:17.520Z,43.66
2022-11-12T15:28:14.961Z,43.30
2022-11-12T15:31:20.390Z,43.98
2022-11-12T15:34:41.720Z,43.34
2022-11-12T15:37:30.367Z,44.17
2022-11-12T15:40:21.610Z,44.05
2022-11-12T15:43:15.935Z,43.83
2022-11-12T15:46:02.556Z,43.79
2022-11-12T15:48:52.817Z,43.97
2022-11-12T15:51:41.277Z,43.97
2022-11-12T15:54:26.842Z,43.65
2022-11-12T15:57:23.019Z,45.04
2022-11-12T16:00:18.468Z,45.31
2022-11-12T16:03:16.085Z,44.44
2022-11-12T16:06:07.366Z,45.08
2022-11-12T16:08:54.869Z,45.52
2022-11-12T16:11:40.478Z,46.25
2022-11-12T16:14:26.180Z,46.53
2022-11-12T16:17:17.783Z,46.78
2022-11-12T16:23:08.737Z,47.30
2022-11-12T16:25:54.901Z,46.76
2022-11-12T16:28:40.824Z,47.63
2022-11-12T16:31:27.195Z,47.76
2022-11-12T16:34:13.072Z,47.78
2022-11-12T16:36:59.080Z,47.80
2022-11-12T16:39:44.516Z,47.95
2022-11-12T16:42:30.011Z,48.59
2022-11-12T16:45:19.168Z,48.82
2022-11-12T16:48:18.961Z,49.27
2022-11-12T16:51:04.537Z,49.43
2022-11-12T16:53:49.953Z,49.92
2022-11-12T16:56:36.634Z,49.81
2022-11-12T16:59:22.119Z,50.03
2022-11-12T17:02:15.505Z,49.78
2022-11-12T17:05:24.519Z,50.26
2022-11-12T17:08:11.097Z,50.50
2022-11-12T17:10:57.315Z,50.79
2022-11-12T17:13:43.720Z,50.92
2022-11-12T17:16:30.562Z,50.51
2022-11-12T17:19:16.281Z,51.21
2022-11-12T17:22:02.037Z,51.84
2022-11-12T17:24:48.017Z,52.04
2022-11-12T17:27:34.139Z,52.44
2022-11-12T17:30:19.731Z,52.63
2022-11-12T17:33:05.437Z,52.86
2022-11-12T17:35:51.157Z,52.72
2022-11-12T17:38:36.959Z,53.00
2022-11-12T17:41:23.380Z,52.95
2022-11-12T17:44:15.212Z,52.89
2022-11-12T17:47:01.872Z,53.19
2022-11-12T17:49:47.796Z,53.33
2022-11-12T17:52:33.537Z,53.69
2022-11-12T17:55:18.992Z,53.57
2022-11-12T17:58:04.583Z,53.29
2022-11-12T18:00:51.751Z,52.56
2022-11-12T18:03:42.414Z,53.28
2022-11-12T18:06:34.435Z,53.63
2022-11-12T18:09:20.305Z,54.14
2022-11-12T18:12:07.548Z,54.14
2022-11-12T18:14:53.038Z,54.48
2022-11-12T18:17:38.981Z,54.58
2022-11-12T18:20:25.179Z,54.58
2022-11-12T18:23:10.945Z,54.73
2022-11-12T18:25:56.983Z,55.11
2022-11-12T18:28:42.845Z,55.11
2022-11-12T18:31:29.431Z,55.24
2022-11-12T18:34:15.474Z,55.43
2022-11-12T18:37:00.809Z,55.38
2022-11-12T18:39:46.232Z,55.51
2022-11-12T18:42:31.727Z,55.36
2022-11-12T18:45:17.493Z,55.50
2022-11-12T18:48:04.914Z,55.49
2022-11-12T18:50:50.657Z,55.62
2022-11-12T18:53:37.757Z,55.82
2022-11-12T18:56:23.275Z,56.05
2022-11-12T18:59:11.567Z,55.70
2022-11-12T19:01:58.992Z,55.53
2022-11-12T19:04:45.602Z,55.17
2022-11-12T19:07:31.764Z,55.31
2022-11-12T19:10:17.427Z,55.22
2022-11-12T19:13:05.059Z,55.59
2022-11-12T19:15:50.753Z,54.82
2022-11-12T19:18:36.398Z,55.43
2022-11-12T19:21:27.839Z,55.74
2022-11-12T19:24:13.733Z,55.82
2022-11-12T19:26:59.286Z,55.96
2022-11-12T19:29:44.982Z,56.00
2022-11-12T19:32:30.462Z,56.13
2022-11-12T19:35:15.864Z,56.11
2022-11-12T19:38:01.315Z,56.22
2022-11-12T19:40:47.255Z,56.33
2022-11-12T19:43:33.174Z,56.47
2022-11-12T19:46:18.962Z,56.31
2022-11-12T19:49:08.007Z,56.56
2022-11-12T19:51:53.738Z,56.38
2022-11-12T19:54:39.375Z,56.39
2022-11-12T19:57:24.859Z,56.21
2022-11-12T20:00:11.587Z,56.27
2022-11-12T20:02:58.619Z,56.24
2022-11-12T20:05:44.290Z,56.49
2022-11-12T20:08:30.277Z,56.43
2022-11-12T20:11:16.397Z,56.66
2022-11-12T20:14:02.639Z,56.47
2022-11-12T20:16:49.411Z,56.59
2022-11-12T20:19:35.057Z,56.69
2022-11-12T20:22:37.438Z,56.72
2022-11-12T20:25:23.503Z,56.81
2022-11-12T20:28:08.946Z,56.51
2022-11-12T20:31:10.303Z,56.56
2022-11-12T20:33:57.099Z,57.05
2022-11-12T20:36:42.827Z,57.18
2022-11-12T20:39:28.527Z,57.24
2022-11-12T20:42:13.964Z,57.33
2022-11-12T20:44:59.490Z,57.26
2022-11-12T20:47:44.943Z,57.63
2022-11-12T20:50:31.949Z,57.85
2022-11-12T20:53:17.554Z,57.99
2022-11-12T20:56:16.244Z,57.80
2022-11-12T20:59:02.353Z,57.77
2022-11-12T21:01:48.343Z,57.70
2022-11-12T21:04:33.994Z,57.19
2022-11-12T21:07:19.613Z,57.28
2022-11-12T21:10:06.373Z,57.43
2022-11-12T21:12:52.205Z,57.67
2022-11-12T21:15:37.633Z,57.40
2022-11-12T21:18:27.972Z,57.70
2022-11-12T21:21:19.175Z,57.76
2022-11-12T21:24:05.489Z,57.80
2022-11-12T21:26:51.432Z,57.61
2022-11-12T21:29:36.841Z,57.56
2022-11-12T21:32:22.279Z,57.72
2022-11-12T21:35:08.219Z,57.86
2022-11-12T21:37:53.887Z,57.82
2022-11-12T21:40:39.315Z,57.65
2022-11-12T21:43:24.679Z,57.43
2022-11-12T21:46:14.606Z,57.55
2022-11-12T21:49:00.220Z,57.76
2022-11-12T21:51:45.461Z,57.77
2022-11-12T21:54:30.949Z,57.75
2022-11-12T21:57:18.849Z,57.17
2022-11-12T22:00:34.673Z,57.63
2022-11-12T22:03:11.422Z,57.50
2022-11-12T22:05:59.506Z,57.65
2022-11-12T22:08:46.136Z,57.65
2022-11-12T22:11:31.907Z,57.54
2022-11-12T22:14:17.415Z,57.52
2022-11-12T22:17:03.059Z,57.65
2022-11-12T22:19:48.646Z,57.59
2022-11-12T22:22:34.082Z,57.45
2022-11-12T22:25:19.508Z,57.32
2022-11-12T22:28:05.169Z,57.61
2022-11-12T22:30:51.532Z,57.52
2022-11-12T22:33:37.926Z,57.62
2022-11-12T22:36:26.537Z,57.39
2022-11-12T22:39:11.874Z,57.09
2022-11-12T22:41:57.319Z,57.65
2022-11-12T22:44:43.055Z,57.78
2022-11-12T22:47:28.262Z,57.98
2022-11-12T22:50:14.017Z,57.82
2022-11-12T22:52:59.316Z,57.96
2022-11-12T22:55:44.955Z,58.30
2022-11-12T22:58:30.881Z,58.51
2022-11-12T23:01:28.914Z,58.54
2022-11-12T23:04:14.748Z,58.42
2022-11-12T23:07:00.332Z,58.75
2022-11-12T23:09:46.182Z,58.79
2022-11-12T23:12:31.670Z,58.77
2022-11-12T23:15:17.320Z,58.64
2022-11-12T23:18:03.505Z,58.73
2022-11-12T23:20:49.270Z,58.68
2022-11-12T23:23:36.169Z,58.87
2022-11-12T23:26:25.256Z,58.93
2022-11-12T23:29:14.498Z,58.82
2022-11-12T23:32:00.244Z,58.79
2022-11-12T23:34:45.810Z,58.45
2022-11-12T23:37:31.232Z,58.47
2022-11-12T23:40:17.284Z,58.31
2022-11-12T23:43:02.836Z,58.46
2022-11-12T23:45:51.414Z,58.95
2022-11-12T23:48:37.139Z,58.77
2022-11-12T23:51:23.439Z,58.83
2022-11-12T23:54:10.307Z,58.71
2022-11-12T23:56:56.211Z,59.13
2022-11-12T23:59:41.665Z,59.24
